sensor_id;sensor_type;location;lat;lon;timestamp;temperature;humidity
68977;SHT31;56029;52.568;13.588;2022-12-07T00:01:40;2.50;99.99
68977;SHT31;56029;52.568;13.588;2022-12-07T00:04:16;2.39;99.99
68977;SHT31;56029;52.568;13.588;2022-12-07T00:06:44;2.32;99.99
68977;SHT31;56029;52.568;13.588;2022-12-07T00:09:12;2.26;99.99
68977;SHT31;56029;52.568;13.588;2022-12-07T00:11:38;2.21;99.99
68977;SHT31;56029;52.568;13.588;2022-12-07T00:14:13;2.21;99.99
68977;SHT31;56029;52.568;13.588;2022-12-07T00:16:43;2.18;99.99
68977;SHT31;56029;52.568;13.588;2022-12-07T00:19:16;2.21;99.99
68977;SHT31;56029;52.568;13.588;2022-12-07T00:21:45;2.22;99.99
68977;SHT31;56029;52.568;13.588;2022-12-07T00:24:11;2.12;99.99
68977;SHT31;56029;52.568;13.588;2022-12-07T00:26:39;2.17;99.99
68977;SHT31;56029;52.568;13.588;2022-12-07T00:29:11;2.15;99.99
68977;SHT31;56029;52.568;13.588;2022-12-07T00:31:37;2.14;99.99
68977;SHT31;56029;52.568;13.588;2022-12-07T00:34:07;2.15;99.99
68977;SHT31;56029;52.568;13.588;2022-12-07T00:36:33;2.10;99.99
68977;SHT31;56029;52.568;13.588;2022-12-07T00:38:59;2.05;99.59
68977;SHT31;56029;52.568;13.588;2022-12-07T00:41:28;2.02;98.83
68977;SHT31;56029;52.568;13.588;2022-12-07T00:43:55;2.02;98.04
68977;SHT31;56029;52.568;13.588;2022-12-07T00:46:21;1.98;98.58
68977;SHT31;56029;52.568;13.588;2022-12-07T00:48:51;1.95;98.64
68977;SHT31;56029;52.568;13.588;2022-12-07T00:51:19;1.93;98.52
68977;SHT31;56029;52.568;13.588;2022-12-07T00:53:45;1.90;98.36
68977;SHT31;56029;52.568;13.588;2022-12-07T00:56:17;1.91;98.64
68977;SHT31;56029;52.568;13.588;2022-12-07T00:59:01;1.90;98.67
68977;SHT31;56029;52.568;13.588;2022-12-07T01:01:28;1.91;99.30
68977;SHT31;56029;52.568;13.588;2022-12-07T01:03:57;1.90;99.42
68977;SHT31;56029;52.568;13.588;2022-12-07T01:06:24;1.90;99.56
68977;SHT31;56029;52.568;13.588;2022-12-07T01:08:56;1.88;99.36
68977;SHT31;56029;52.568;13.588;2022-12-07T01:11:30;1.91;99.13
68977;SHT31;56029;52.568;13.588;2022-12-07T01:13:57;1.90;98.89
68977;SHT31;56029;52.568;13.588;2022-12-07T01:16:25;1.90;98.88
68977;SHT31;56029;52.568;13.588;2022-12-07T01:18:56;1.88;99.09
68977;SHT31;56029;52.568;13.588;2022-12-07T01:21:28;1.90;99.45
68977;SHT31;56029;52.568;13.588;2022-12-07T01:24:00;1.84;98.72
68977;SHT31;56029;52.568;13.588;2022-12-07T01:26:28;1.73;99.33
68977;SHT31;56029;52.568;13.588;2022-12-07T01:28:55;1.62;99.08
68977;SHT31;56029;52.568;13.588;2022-12-07T01:31:23;1.59;99.27
68977;SHT31;56029;52.568;13.588;2022-12-07T01:33:52;1.59;99.05
68977;SHT31;56029;52.568;13.588;2022-12-07T01:38:45;1.64;99.44
68977;SHT31;56029;52.568;13.588;2022-12-07T01:41:12;1.67;99.45
68977;SHT31;56029;52.568;13.588;2022-12-07T01:44:17;1.66;99.31
68977;SHT31;56029;52.568;13.588;2022-12-07T01:46:45;1.70;99.29
68977;SHT31;56029;52.568;13.588;2022-12-07T01:52:00;1.68;98.59
68977;SHT31;56029;52.568;13.588;2022-12-07T01:54:27;1.67;98.16
68977;SHT31;56029;52.568;13.588;2022-12-07T01:56:54;1.68;99.24
68977;SHT31;56029;52.568;13.588;2022-12-07T01:59:24;1.70;98.62
68977;SHT31;56029;52.568;13.588;2022-12-07T02:01:53;1.68;98.19
68977;SHT31;56029;52.568;13.588;2022-12-07T02:04:19;1.66;98.43
68977;SHT31;56029;52.568;13.588;2022-12-07T02:06:46;1.67;97.91
68977;SHT31;56029;52.568;13.588;2022-12-07T02:09:12;1.67;97.68
68977;SHT31;56029;52.568;13.588;2022-12-07T02:11:38;1.66;97.57
68977;SHT31;56029;52.568;13.588;2022-12-07T02:14:05;1.70;98.30
68977;SHT31;56029;52.568;13.588;2022-12-07T02:16:52;1.70;97.57
68977;SHT31;56029;52.568;13.588;2022-12-07T02:26:14;1.70;97.98
68977;SHT31;56029;52.568;13.588;2022-12-07T02:31:30;1.68;96.31
68977;SHT31;56029;52.568;13.588;2022-12-07T02:34:10;1.64;96.04
68977;SHT31;56029;52.568;13.588;2022-12-07T02:36:44;1.60;96.63
68977;SHT31;56029;52.568;13.588;2022-12-07T02:39:40;1.60;96.93
68977;SHT31;56029;52.568;13.588;2022-12-07T02:42:15;1.64;97.10
68977;SHT31;56029;52.568;13.588;2022-12-07T02:44:43;1.59;96.60
68977;SHT31;56029;52.568;13.588;2022-12-07T02:47:13;1.57;97.34
68977;SHT31;56029;52.568;13.588;2022-12-07T02:49:39;1.57;97.15
68977;SHT31;56029;52.568;13.588;2022-12-07T02:52:05;1.52;96.62
68977;SHT31;56029;52.568;13.588;2022-12-07T02:54:31;1.53;96.72
68977;SHT31;56029;52.568;13.588;2022-12-07T02:57:14;1.50;96.82
68977;SHT31;56029;52.568;13.588;2022-12-07T03:00:09;1.50;97.01
68977;SHT31;56029;52.568;13.588;2022-12-07T03:05:32;1.53;97.07
68977;SHT31;56029;52.568;13.588;2022-12-07T03:08:08;1.57;96.66
68977;SHT31;56029;52.568;13.588;2022-12-07T03:10:58;1.57;97.04
68977;SHT31;56029;52.568;13.588;2022-12-07T03:13:48;1.59;97.25
68977;SHT31;56029;52.568;13.588;2022-12-07T03:16:22;1.60;97.86
68977;SHT31;56029;52.568;13.588;2022-12-07T03:18:55;1.60;97.62
68977;SHT31;56029;52.568;13.588;2022-12-07T03:21:26;1.59;97.92
68977;SHT31;56029;52.568;13.588;2022-12-07T03:23:56;1.57;98.18
68977;SHT31;56029;52.568;13.588;2022-12-07T03:26:24;1.54;98.41
68977;SHT31;56029;52.568;13.588;2022-12-07T03:28:54;1.49;98.64
68977;SHT31;56029;52.568;13.588;2022-12-07T03:31:29;1.53;98.60
68977;SHT31;56029;52.568;13.588;2022-12-07T03:36:47;1.54;98.76
68977;SHT31;56029;52.568;13.588;2022-12-07T03:39:37;1.57;98.98
68977;SHT31;56029;52.568;13.588;2022-12-07T03:42:06;1.62;98.77
68977;SHT31;56029;52.568;13.588;2022-12-07T03:44:34;1.62;99.08
68977;SHT31;56029;52.568;13.588;2022-12-07T03:47:07;1.63;99.08
68977;SHT31;56029;52.568;13.588;2022-12-07T03:49:43;1.62;98.87
68977;SHT31;56029;52.568;13.588;2022-12-07T03:52:52;1.68;98.91
68977;SHT31;56029;52.568;13.588;2022-12-07T03:55:29;1.70;99.35
68977;SHT31;56029;52.568;13.588;2022-12-07T03:57:59;1.71;99.20
68977;SHT31;56029;52.568;13.588;2022-12-07T04:00:26;1.66;99.41
68977;SHT31;56029;52.568;13.588;2022-12-07T04:02:52;1.68;99.44
68977;SHT31;56029;52.568;13.588;2022-12-07T04:05:18;1.73;99.37
68977;SHT31;56029;52.568;13.588;2022-12-07T04:07:44;1.73;99.74
68977;SHT31;56029;52.568;13.588;2022-12-07T04:10:10;1.75;99.63
68977;SHT31;56029;52.568;13.588;2022-12-07T04:12:36;1.71;99.69
68977;SHT31;56029;52.568;13.588;2022-12-07T04:15:03;1.74;99.77
68977;SHT31;56029;52.568;13.588;2022-12-07T04:17:28;1.67;99.92
68977;SHT31;56029;52.568;13.588;2022-12-07T04:19:54;1.62;99.99
68977;SHT31;56029;52.568;13.588;2022-12-07T04:22:19;1.57;99.99
68977;SHT31;56029;52.568;13.588;2022-12-07T04:24:45;1.62;99.99
68977;SHT31;56029;52.568;13.588;2022-12-07T04:27:10;1.49;99.99
68977;SHT31;56029;52.568;13.588;2022-12-07T04:29:36;1.53;99.99
68977;SHT31;56029;52.568;13.588;2022-12-07T04:32:02;1.47;99.99
68977;SHT31;56029;52.568;13.588;2022-12-07T04:34:27;1.52;99.99
68977;SHT31;56029;52.568;13.588;2022-12-07T04:36:53;1.49;99.99
68977;SHT31;56029;52.568;13.588;2022-12-07T04:39:30;1.49;99.99
68977;SHT31;56029;52.568;13.588;2022-12-07T04:41:57;1.52;99.99
68977;SHT31;56029;52.568;13.588;2022-12-07T04:44:24;1.52;99.99
68977;SHT31;56029;52.568;13.588;2022-12-07T04:46:50;1.56;99.99
68977;SHT31;56029;52.568;13.588;2022-12-07T04:49:17;1.50;99.99
68977;SHT31;56029;52.568;13.588;2022-12-07T04:51:44;1.52;99.99
68977;SHT31;56029;52.568;13.588;2022-12-07T04:54:11;1.54;99.99
68977;SHT31;56029;52.568;13.588;2022-12-07T04:56:36;1.54;99.99
68977;SHT31;56029;52.568;13.588;2022-12-07T04:59:03;1.56;99.99
68977;SHT31;56029;52.568;13.588;2022-12-07T05:01:28;1.57;99.99
68977;SHT31;56029;52.568;13.588;2022-12-07T05:03:54;1.56;99.99
68977;SHT31;56029;52.568;13.588;2022-12-07T05:06:20;1.60;99.99
68977;SHT31;56029;52.568;13.588;2022-12-07T05:08:45;1.62;99.99
68977;SHT31;56029;52.568;13.588;2022-12-07T05:11:11;1.60;99.99
68977;SHT31;56029;52.568;13.588;2022-12-07T05:13:57;1.63;99.99
68977;SHT31;56029;52.568;13.588;2022-12-07T05:16:23;1.66;99.99
68977;SHT31;56029;52.568;13.588;2022-12-07T05:18:49;1.68;99.99
68977;SHT31;56029;52.568;13.588;2022-12-07T05:21:14;1.70;99.99
68977;SHT31;56029;52.568;13.588;2022-12-07T05:23:40;1.70;99.99
68977;SHT31;56029;52.568;13.588;2022-12-07T05:26:05;1.70;99.99
68977;SHT31;56029;52.568;13.588;2022-12-07T05:28:31;1.70;99.99
68977;SHT31;56029;52.568;13.588;2022-12-07T05:30:56;1.71;99.99
68977;SHT31;56029;52.568;13.588;2022-12-07T05:33:22;1.77;99.99
68977;SHT31;56029;52.568;13.588;2022-12-07T05:35:48;1.75;99.99
68977;SHT31;56029;52.568;13.588;2022-12-07T05:38:13;1.80;99.99
68977;SHT31;56029;52.568;13.588;2022-12-07T05:40:39;1.84;99.99
68977;SHT31;56029;52.568;13.588;2022-12-07T05:43:04;1.85;99.99
68977;SHT31;56029;52.568;13.588;2022-12-07T05:45:30;1.87;99.99
68977;SHT31;56029;52.568;13.588;2022-12-07T05:47:55;1.91;99.99
68977;SHT31;56029;52.568;13.588;2022-12-07T05:50:21;1.95;99.99
68977;SHT31;56029;52.568;13.588;2022-12-07T05:52:46;2.01;99.99
68977;SHT31;56029;52.568;13.588;2022-12-07T05:55:12;2.01;99.99
68977;SHT31;56029;52.568;13.588;2022-12-07T05:57:37;2.01;99.99
68977;SHT31;56029;52.568;13.588;2022-12-07T06:00:04;2.02;99.99
68977;SHT31;56029;52.568;13.588;2022-12-07T06:02:30;2.05;99.99
68977;SHT31;56029;52.568;13.588;2022-12-07T06:04:55;2.05;99.99
68977;SHT31;56029;52.568;13.588;2022-12-07T06:07:21;2.10;99.99
68977;SHT31;56029;52.568;13.588;2022-12-07T06:09:46;2.10;99.99
68977;SHT31;56029;52.568;13.588;2022-12-07T06:12:13;2.10;99.99
68977;SHT31;56029;52.568;13.588;2022-12-07T06:14:58;2.12;99.99
68977;SHT31;56029;52.568;13.588;2022-12-07T06:17:24;2.22;99.99
68977;SHT31;56029;52.568;13.588;2022-12-07T06:19:49;2.24;99.99
68977;SHT31;56029;52.568;13.588;2022-12-07T06:22:15;2.25;99.99
68977;SHT31;56029;52.568;13.588;2022-12-07T06:24:41;2.29;99.99
68977;SHT31;56029;52.568;13.588;2022-12-07T06:27:08;2.35;99.99
68977;SHT31;56029;52.568;13.588;2022-12-07T06:29:33;2.35;99.99
68977;SHT31;56029;52.568;13.588;2022-12-07T06:31:59;2.32;99.99
68977;SHT31;56029;52.568;13.588;2022-12-07T06:34:25;2.38;99.99
68977;SHT31;56029;52.568;13.588;2022-12-07T06:36:51;2.38;99.99
68977;SHT31;56029;52.568;13.588;2022-12-07T06:39:21;2.36;99.99
68977;SHT31;56029;52.568;13.588;2022-12-07T06:41:47;2.36;99.99
68977;SHT31;56029;52.568;13.588;2022-12-07T06:44:13;2.32;99.99
68977;SHT31;56029;52.568;13.588;2022-12-07T06:46:39;2.36;99.99
68977;SHT31;56029;52.568;13.588;2022-12-07T06:49:05;2.38;99.99
68977;SHT31;56029;52.568;13.588;2022-12-07T06:51:32;2.39;99.99
68977;SHT31;56029;52.568;13.588;2022-12-07T06:53:57;2.45;99.99
68977;SHT31;56029;52.568;13.588;2022-12-07T06:56:23;2.45;99.99
68977;SHT31;56029;52.568;13.588;2022-12-07T06:58:49;2.50;99.99
68977;SHT31;56029;52.568;13.588;2022-12-07T07:01:17;2.50;99.99
68977;SHT31;56029;52.568;13.588;2022-12-07T07:03:43;2.54;99.99
68977;SHT31;56029;52.568;13.588;2022-12-07T07:06:09;2.57;99.99
68977;SHT31;56029;52.568;13.588;2022-12-07T07:08:36;2.59;99.99
68977;SHT31;56029;52.568;13.588;2022-12-07T07:11:06;2.59;99.99
68977;SHT31;56029;52.568;13.588;2022-12-07T07:13:32;2.64;99.99
68977;SHT31;56029;52.568;13.588;2022-12-07T07:15:58;2.66;99.99
68977;SHT31;56029;52.568;13.588;2022-12-07T07:18:23;2.69;99.99
68977;SHT31;56029;52.568;13.588;2022-12-07T07:20:50;2.72;99.99
68977;SHT31;56029;52.568;13.588;2022-12-07T07:23:16;2.77;99.99
68977;SHT31;56029;52.568;13.588;2022-12-07T07:25:42;2.80;99.99
68977;SHT31;56029;52.568;13.588;2022-12-07T07:28:07;2.80;99.99
68977;SHT31;56029;52.568;13.588;2022-12-07T07:30:33;2.89;99.99
68977;SHT31;56029;52.568;13.588;2022-12-07T07:33:00;2.87;99.99
68977;SHT31;56029;52.568;13.588;2022-12-07T07:35:27;2.91;99.99
68977;SHT31;56029;52.568;13.588;2022-12-07T07:37:53;2.94;99.99
68977;SHT31;56029;52.568;13.588;2022-12-07T07:40:19;3.01;99.99
68977;SHT31;56029;52.568;13.588;2022-12-07T07:42:49;3.03;99.99
68977;SHT31;56029;52.568;13.588;2022-12-07T07:45:15;3.03;99.99
68977;SHT31;56029;52.568;13.588;2022-12-07T07:47:41;3.05;99.99
68977;SHT31;56029;52.568;13.588;2022-12-07T07:50:06;3.11;99.99
68977;SHT31;56029;52.568;13.588;2022-12-07T07:52:32;3.14;99.99
68977;SHT31;56029;52.568;13.588;2022-12-07T07:54:58;3.17;99.99
68977;SHT31;56029;52.568;13.588;2022-12-07T07:57:23;3.22;99.78
68977;SHT31;56029;52.568;13.588;2022-12-07T07:59:49;3.22;99.99
68977;SHT31;56029;52.568;13.588;2022-12-07T08:02:16;3.25;98.49
68977;SHT31;56029;52.568;13.588;2022-12-07T08:04:43;3.24;98.74
68977;SHT31;56029;52.568;13.588;2022-12-07T08:07:09;3.20;97.98
68977;SHT31;56029;52.568;13.588;2022-12-07T08:09:34;3.20;98.81
68977;SHT31;56029;52.568;13.588;2022-12-07T08:12:00;3.21;98.20
68977;SHT31;56029;52.568;13.588;2022-12-07T08:14:26;3.22;97.79
68977;SHT31;56029;52.568;13.588;2022-12-07T08:16:52;3.27;97.71
68977;SHT31;56029;52.568;13.588;2022-12-07T08:19:18;3.34;98.24
68977;SHT31;56029;52.568;13.588;2022-12-07T08:21:44;3.29;98.07
68977;SHT31;56029;52.568;13.588;2022-12-07T08:24:09;3.35;97.53
68977;SHT31;56029;52.568;13.588;2022-12-07T08:26:35;3.35;97.59
68977;SHT31;56029;52.568;13.588;2022-12-07T08:29:01;3.32;97.66
68977;SHT31;56029;52.568;13.588;2022-12-07T08:31:26;3.35;97.19
68977;SHT31;56029;52.568;13.588;2022-12-07T08:33:53;3.32;97.86
68977;SHT31;56029;52.568;13.588;2022-12-07T08:36:18;3.32;96.91
68977;SHT31;56029;52.568;13.588;2022-12-07T08:38:44;3.31;97.28
68977;SHT31;56029;52.568;13.588;2022-12-07T08:41:10;3.34;97.25
68977;SHT31;56029;52.568;13.588;2022-12-07T08:43:36;3.32;96.67
68977;SHT31;56029;52.568;13.588;2022-12-07T08:46:11;3.34;97.38
68977;SHT31;56029;52.568;13.588;2022-12-07T08:48:45;3.34;96.32
68977;SHT31;56029;52.568;13.588;2022-12-07T08:51:12;3.22;96.79
68977;SHT31;56029;52.568;13.588;2022-12-07T08:53:39;3.12;97.65
68977;SHT31;56029;52.568;13.588;2022-12-07T08:56:05;3.04;97.95
68977;SHT31;56029;52.568;13.588;2022-12-07T08:58:33;3.03;98.52
68977;SHT31;56029;52.568;13.588;2022-12-07T09:00:58;3.05;98.96
68977;SHT31;56029;52.568;13.588;2022-12-07T09:03:24;3.08;97.58
68977;SHT31;56029;52.568;13.588;2022-12-07T09:05:49;3.11;96.07
68977;SHT31;56029;52.568;13.588;2022-12-07T09:08:15;3.08;96.22
68977;SHT31;56029;52.568;13.588;2022-12-07T09:10:41;3.05;95.25
68977;SHT31;56029;52.568;13.588;2022-12-07T09:13:07;3.14;94.60
68977;SHT31;56029;52.568;13.588;2022-12-07T09:15:32;3.21;94.65
68977;SHT31;56029;52.568;13.588;2022-12-07T09:17:58;3.27;93.69
68977;SHT31;56029;52.568;13.588;2022-12-07T09:20:23;3.31;94.12
68977;SHT31;56029;52.568;13.588;2022-12-07T09:22:49;3.25;93.43
68977;SHT31;56029;52.568;13.588;2022-12-07T09:25:15;3.25;93.99
68977;SHT31;56029;52.568;13.588;2022-12-07T09:27:41;3.31;93.87
68977;SHT31;56029;52.568;13.588;2022-12-07T09:30:07;3.34;93.50
68977;SHT31;56029;52.568;13.588;2022-12-07T09:32:33;3.35;93.68
68977;SHT31;56029;52.568;13.588;2022-12-07T09:34:58;3.29;93.23
68977;SHT31;56029;52.568;13.588;2022-12-07T09:37:24;3.35;93.74
68977;SHT31;56029;52.568;13.588;2022-12-07T09:39:49;3.34;92.39
68977;SHT31;56029;52.568;13.588;2022-12-07T09:42:32;3.35;92.22
68977;SHT31;56029;52.568;13.588;2022-12-07T09:44:59;3.32;91.96
68977;SHT31;56029;52.568;13.588;2022-12-07T09:47:26;3.32;90.16
68977;SHT31;56029;52.568;13.588;2022-12-07T09:49:53;3.28;89.51
68977;SHT31;56029;52.568;13.588;2022-12-07T09:52:27;3.28;90.57
68977;SHT31;56029;52.568;13.588;2022-12-07T09:54:53;3.27;90.16
68977;SHT31;56029;52.568;13.588;2022-12-07T09:57:29;3.27;90.79
68977;SHT31;56029;52.568;13.588;2022-12-07T09:59:59;3.25;90.94
68977;SHT31;56029;52.568;13.588;2022-12-07T10:05:00;3.10;90.87
68977;SHT31;56029;52.568;13.588;2022-12-07T10:07:26;3.08;91.45
68977;SHT31;56029;52.568;13.588;2022-12-07T10:09:51;3.00;91.35
68977;SHT31;56029;52.568;13.588;2022-12-07T10:12:17;3.00;91.80
68977;SHT31;56029;52.568;13.588;2022-12-07T10:14:59;3.01;91.30
68977;SHT31;56029;52.568;13.588;2022-12-07T10:17:38;3.03;91.23
68977;SHT31;56029;52.568;13.588;2022-12-07T10:20:26;3.04;90.98
68977;SHT31;56029;52.568;13.588;2022-12-07T10:22:58;3.01;89.72
68977;SHT31;56029;52.568;13.588;2022-12-07T10:25:27;3.03;90.25
68977;SHT31;56029;52.568;13.588;2022-12-07T10:27:58;2.99;90.79
68977;SHT31;56029;52.568;13.588;2022-12-07T10:30:25;3.00;90.18
68977;SHT31;56029;52.568;13.588;2022-12-07T10:32:50;3.03;90.22
68977;SHT31;56029;52.568;13.588;2022-12-07T10:37:45;3.00;90.90
68977;SHT31;56029;52.568;13.588;2022-12-07T10:43:23;2.86;90.54
68977;SHT31;56029;52.568;13.588;2022-12-07T10:48:50;2.79;90.39
68977;SHT31;56029;52.568;13.588;2022-12-07T10:57:19;2.77;90.08
68977;SHT31;56029;52.568;13.588;2022-12-07T11:05:48;3.07;91.56
68977;SHT31;56029;52.568;13.588;2022-12-07T11:11:16;3.18;89.94
68977;SHT31;56029;52.568;13.588;2022-12-07T11:13:54;3.24;90.20
68977;SHT31;56029;52.568;13.588;2022-12-07T11:21:45;3.27;90.70
68977;SHT31;56029;52.568;13.588;2022-12-07T11:24:18;3.31;90.56
68977;SHT31;56029;52.568;13.588;2022-12-07T11:27:16;3.20;89.84
68977;SHT31;56029;52.568;13.588;2022-12-07T11:29:51;3.12;90.76
68977;SHT31;56029;52.568;13.588;2022-12-07T11:32:35;3.08;91.80
68977;SHT31;56029;52.568;13.588;2022-12-07T11:38:01;3.05;91.21
68977;SHT31;56029;52.568;13.588;2022-12-07T11:40:36;3.08;92.12
68977;SHT31;56029;52.568;13.588;2022-12-07T11:45:39;3.04;91.33
68977;SHT31;56029;52.568;13.588;2022-12-07T11:48:18;3.07;91.65
68977;SHT31;56029;52.568;13.588;2022-12-07T11:50:54;3.05;91.01
68977;SHT31;56029;52.568;13.588;2022-12-07T11:53:26;3.07;90.99
68977;SHT31;56029;52.568;13.588;2022-12-07T11:56:13;3.12;91.45
68977;SHT31;56029;52.568;13.588;2022-12-07T11:59:11;3.18;91.12
68977;SHT31;56029;52.568;13.588;2022-12-07T12:04:21;3.28;91.74
68977;SHT31;56029;52.568;13.588;2022-12-07T12:06:48;3.31;90.99
68977;SHT31;56029;52.568;13.588;2022-12-07T12:12:23;3.28;91.55
68977;SHT31;56029;52.568;13.588;2022-12-07T12:15:23;3.34;91.68
68977;SHT31;56029;52.568;13.588;2022-12-07T12:20:55;3.34;91.12
68977;SHT31;56029;52.568;13.588;2022-12-07T12:23:35;3.43;91.16
68977;SHT31;56029;52.568;13.588;2022-12-07T12:26:05;3.49;91.07
68977;SHT31;56029;52.568;13.588;2022-12-07T12:28:50;3.54;90.87
68977;SHT31;56029;52.568;13.588;2022-12-07T12:33:47;3.49;90.89
68977;SHT31;56029;52.568;13.588;2022-12-07T12:44:03;3.49;91.15
68977;SHT31;56029;52.568;13.588;2022-12-07T12:46:59;3.51;90.80
68977;SHT31;56029;52.568;13.588;2022-12-07T12:49:33;3.54;91.14
68977;SHT31;56029;52.568;13.588;2022-12-07T12:54:36;3.59;90.77
68977;SHT31;56029;52.568;13.588;2022-12-07T12:57:19;3.65;91.01
68977;SHT31;56029;52.568;13.588;2022-12-07T13:02:20;3.68;90.95
68977;SHT31;56029;52.568;13.588;2022-12-07T13:04:59;3.59;91.47
68977;SHT31;56029;52.568;13.588;2022-12-07T13:15:49;3.66;91.22
68977;SHT31;56029;52.568;13.588;2022-12-07T13:21:01;3.65;90.47
68977;SHT31;56029;52.568;13.588;2022-12-07T13:23:34;3.62;90.96
68977;SHT31;56029;52.568;13.588;2022-12-07T13:29:17;3.49;91.43
68977;SHT31;56029;52.568;13.588;2022-12-07T13:31:56;3.46;91.83
68977;SHT31;56029;52.568;13.588;2022-12-07T13:34:35;3.45;92.06
68977;SHT31;56029;52.568;13.588;2022-12-07T13:37:09;3.45;92.18
68977;SHT31;56029;52.568;13.588;2022-12-07T13:39:45;3.38;92.79
68977;SHT31;56029;52.568;13.588;2022-12-07T13:42:31;3.35;92.56
68977;SHT31;56029;52.568;13.588;2022-12-07T13:44:58;3.38;92.56
68977;SHT31;56029;52.568;13.588;2022-12-07T13:47:41;3.39;92.86
68977;SHT31;56029;52.568;13.588;2022-12-07T13:50:28;3.39;92.58
68977;SHT31;56029;52.568;13.588;2022-12-07T13:52:58;3.42;92.66
68977;SHT31;56029;52.568;13.588;2022-12-07T13:55:25;3.46;92.06
68977;SHT31;56029;52.568;13.588;2022-12-07T13:57:52;3.48;91.80
68977;SHT31;56029;52.568;13.588;2022-12-07T14:00:20;3.48;92.06
68977;SHT31;56029;52.568;13.588;2022-12-07T14:03:01;3.59;88.83
68977;SHT31;56029;52.568;13.588;2022-12-07T14:05:28;3.52;90.00
68977;SHT31;56029;52.568;13.588;2022-12-07T14:07:59;3.55;89.88
68977;SHT31;56029;52.568;13.588;2022-12-07T14:10:28;3.51;90.27
68977;SHT31;56029;52.568;13.588;2022-12-07T14:12:54;3.43;90.55
68977;SHT31;56029;52.568;13.588;2022-12-07T14:15:22;3.43;90.52
68977;SHT31;56029;52.568;13.588;2022-12-07T14:17:54;3.49;89.11
68977;SHT31;56029;52.568;13.588;2022-12-07T14:20:34;3.52;89.13
68977;SHT31;56029;52.568;13.588;2022-12-07T14:23:02;3.51;89.25
68977;SHT31;56029;52.568;13.588;2022-12-07T14:25:52;3.52;88.61
68977;SHT31;56029;52.568;13.588;2022-12-07T14:28:29;3.48;89.01
68977;SHT31;56029;52.568;13.588;2022-12-07T14:30:56;3.43;89.43
68977;SHT31;56029;52.568;13.588;2022-12-07T14:33:23;3.52;88.97
68977;SHT31;56029;52.568;13.588;2022-12-07T14:35:49;3.54;88.85
68977;SHT31;56029;52.568;13.588;2022-12-07T14:38:15;3.52;89.29
68977;SHT31;56029;52.568;13.588;2022-12-07T14:40:40;3.59;88.32
68977;SHT31;56029;52.568;13.588;2022-12-07T14:43:12;3.59;88.62
68977;SHT31;56029;52.568;13.588;2022-12-07T14:45:38;3.59;88.43
68977;SHT31;56029;52.568;13.588;2022-12-07T14:48:06;3.60;89.26
68977;SHT31;56029;52.568;13.588;2022-12-07T14:50:39;3.55;89.66
68977;SHT31;56029;52.568;13.588;2022-12-07T14:53:14;3.56;90.90
68977;SHT31;56029;52.568;13.588;2022-12-07T14:55:40;3.55;91.20
68977;SHT31;56029;52.568;13.588;2022-12-07T14:58:12;3.54;91.40
68977;SHT31;56029;52.568;13.588;2022-12-07T15:00:39;3.54;91.52
68977;SHT31;56029;52.568;13.588;2022-12-07T15:03:04;3.56;92.32
68977;SHT31;56029;52.568;13.588;2022-12-07T15:05:30;3.55;92.32
68977;SHT31;56029;52.568;13.588;2022-12-07T15:07:55;3.55;92.89
68977;SHT31;56029;52.568;13.588;2022-12-07T15:10:23;3.55;92.53
68977;SHT31;56029;52.568;13.588;2022-12-07T15:12:50;3.56;92.26
68977;SHT31;56029;52.568;13.588;2022-12-07T15:15:16;3.52;92.58
68977;SHT31;56029;52.568;13.588;2022-12-07T15:17:42;3.49;92.52
68977;SHT31;56029;52.568;13.588;2022-12-07T15:20:12;3.42;93.01
68977;SHT31;56029;52.568;13.588;2022-12-07T15:22:37;3.42;92.93
68977;SHT31;56029;52.568;13.588;2022-12-07T15:25:03;3.42;92.72
68977;SHT31;56029;52.568;13.588;2022-12-07T15:27:30;3.39;93.18
68977;SHT31;56029;52.568;13.588;2022-12-07T15:29:56;3.41;93.10
68977;SHT31;56029;52.568;13.588;2022-12-07T15:32:21;3.38;92.23
68977;SHT31;56029;52.568;13.588;2022-12-07T15:34:48;3.39;91.44
68977;SHT31;56029;52.568;13.588;2022-12-07T15:37:15;3.36;91.87
68977;SHT31;56029;52.568;13.588;2022-12-07T15:39:41;3.35;91.96
68977;SHT31;56029;52.568;13.588;2022-12-07T15:42:06;3.29;91.95
68977;SHT31;56029;52.568;13.588;2022-12-07T15:44:32;3.28;91.96
68977;SHT31;56029;52.568;13.588;2022-12-07T15:47:16;3.24;91.76
68977;SHT31;56029;52.568;13.588;2022-12-07T15:49:42;3.20;92.31
68977;SHT31;56029;52.568;13.588;2022-12-07T15:52:08;3.11;92.32
68977;SHT31;56029;52.568;13.588;2022-12-07T15:54:33;3.12;92.19
68977;SHT31;56029;52.568;13.588;2022-12-07T15:56:59;3.14;91.73
68977;SHT31;56029;52.568;13.588;2022-12-07T15:59:27;3.18;91.31
68977;SHT31;56029;52.568;13.588;2022-12-07T16:01:52;3.17;91.34
68977;SHT31;56029;52.568;13.588;2022-12-07T16:04:18;3.14;91.07
68977;SHT31;56029;52.568;13.588;2022-12-07T16:06:44;3.14;91.29
68977;SHT31;56029;52.568;13.588;2022-12-07T16:09:10;3.17;91.08
68977;SHT31;56029;52.568;13.588;2022-12-07T16:11:35;3.20;91.62
68977;SHT31;56029;52.568;13.588;2022-12-07T16:14:01;3.21;91.29
68977;SHT31;56029;52.568;13.588;2022-12-07T16:16:27;3.22;91.03
68977;SHT31;56029;52.568;13.588;2022-12-07T16:18:52;3.21;91.19
68977;SHT31;56029;52.568;13.588;2022-12-07T16:21:19;1.88;96.92
68977;SHT31;56029;52.568;13.588;2022-12-07T16:23:45;1.11;99.99
68977;SHT31;56029;52.568;13.588;2022-12-07T16:26:13;0.92;99.99
68977;SHT31;56029;52.568;13.588;2022-12-07T16:28:39;0.85;99.99
68977;SHT31;56029;52.568;13.588;2022-12-07T16:31:13;0.80;99.99
68977;SHT31;56029;52.568;13.588;2022-12-07T16:33:40;0.78;99.99
68977;SHT31;56029;52.568;13.588;2022-12-07T16:36:08;0.80;99.99
68977;SHT31;56029;52.568;13.588;2022-12-07T16:38:34;0.87;99.99
68977;SHT31;56029;52.568;13.588;2022-12-07T16:41:00;0.98;99.99
68977;SHT31;56029;52.568;13.588;2022-12-07T16:43:26;1.25;99.99
68977;SHT31;56029;52.568;13.588;2022-12-07T16:45:52;1.35;99.99
68977;SHT31;56029;52.568;13.588;2022-12-07T16:48:18;1.59;99.20
68977;SHT31;56029;52.568;13.588;2022-12-07T16:50:44;1.66;99.30
68977;SHT31;56029;52.568;13.588;2022-12-07T16:53:10;1.64;99.40
68977;SHT31;56029;52.568;13.588;2022-12-07T16:55:37;1.74;98.82
68977;SHT31;56029;52.568;13.588;2022-12-07T16:58:03;1.78;98.58
68977;SHT31;56029;52.568;13.588;2022-12-07T17:00:28;1.80;98.37
68977;SHT31;56029;52.568;13.588;2022-12-07T17:02:54;1.87;97.63
68977;SHT31;56029;52.568;13.588;2022-12-07T17:05:20;1.93;97.26
68977;SHT31;56029;52.568;13.588;2022-12-07T17:07:46;1.85;97.74
68977;SHT31;56029;52.568;13.588;2022-12-07T17:10:12;1.75;98.18
68977;SHT31;56029;52.568;13.588;2022-12-07T17:12:38;1.87;97.26
68977;SHT31;56029;52.568;13.588;2022-12-07T17:15:04;1.87;97.25
68977;SHT31;56029;52.568;13.588;2022-12-07T17:20:18;1.70;98.03
68977;SHT31;56029;52.568;13.588;2022-12-07T17:22:44;1.70;97.96